sensor_id;sensor_type;location;lat;lon;timestamp;temperature;humidity
56234;DHT22;42141;53.240;6.580;2023-04-03T00:01:29;1.80;99.90
56234;DHT22;42141;53.240;6.580;2023-04-03T00:03:56;1.80;99.90
56234;DHT22;42141;53.240;6.580;2023-04-03T00:06:23;1.80;99.90
56234;DHT22;42141;53.240;6.580;2023-04-03T00:08:49;1.90;99.90
56234;DHT22;42141;53.240;6.580;2023-04-03T00:11:15;1.90;99.90
56234;DHT22;42141;53.240;6.580;2023-04-03T00:13:41;2.90;99.90
56234;DHT22;42141;53.240;6.580;2023-04-03T00:16:08;1.90;99.90
56234;DHT22;42141;53.240;6.580;2023-04-03T00:18:36;3.40;99.90
56234;DHT22;42141;53.240;6.580;2023-04-03T00:21:02;1.90;99.90
56234;DHT22;42141;53.240;6.580;2023-04-03T00:23:28;1.90;99.90
56234;DHT22;42141;53.240;6.580;2023-04-03T00:25:54;1.90;99.90
56234;DHT22;42141;53.240;6.580;2023-04-03T00:28:20;1.90;99.90
56234;DHT22;42141;53.240;6.580;2023-04-03T00:30:48;1.90;99.90
56234;DHT22;42141;53.240;6.580;2023-04-03T00:33:13;3.20;99.90
56234;DHT22;42141;53.240;6.580;2023-04-03T00:35:39;1.90;99.90
56234;DHT22;42141;53.240;6.580;2023-04-03T00:38:05;3.20;99.90
56234;DHT22;42141;53.240;6.580;2023-04-03T00:40:41;1.80;99.90
56234;DHT22;42141;53.240;6.580;2023-04-03T00:43:22;1.80;99.90
56234;DHT22;42141;53.240;6.580;2023-04-03T00:45:53;1.80;99.90
56234;DHT22;42141;53.240;6.580;2023-04-03T00:48:27;2.10;99.90
56234;DHT22;42141;53.240;6.580;2023-04-03T00:50:53;1.70;99.90
56234;DHT22;42141;53.240;6.580;2023-04-03T00:53:24;2.70;99.90
56234;DHT22;42141;53.240;6.580;2023-04-03T00:55:51;1.70;99.90
56234;DHT22;42141;53.240;6.580;2023-04-03T00:58:21;1.60;99.90
56234;DHT22;42141;53.240;6.580;2023-04-03T01:00:52;1.60;99.90
56234;DHT22;42141;53.240;6.580;2023-04-03T01:03:21;1.60;99.90
56234;DHT22;42141;53.240;6.580;2023-04-03T01:05:47;1.60;99.90
56234;DHT22;42141;53.240;6.580;2023-04-03T01:08:13;1.60;99.90
56234;DHT22;42141;53.240;6.580;2023-04-03T01:10:39;1.60;99.90
56234;DHT22;42141;53.240;6.580;2023-04-03T01:13:23;1.60;99.90
56234;DHT22;42141;53.240;6.580;2023-04-03T01:15:49;1.60;99.90
56234;DHT22;42141;53.240;6.580;2023-04-03T01:18:14;1.60;99.90
56234;DHT22;42141;53.240;6.580;2023-04-03T01:23:49;2.80;99.90
56234;DHT22;42141;53.240;6.580;2023-04-03T01:26:16;1.60;99.90
56234;DHT22;42141;53.240;6.580;2023-04-03T01:28:42;1.70;99.90
56234;DHT22;42141;53.240;6.580;2023-04-03T01:34:01;1.70;99.90
56234;DHT22;42141;53.240;6.580;2023-04-03T01:36:29;1.60;99.90
56234;DHT22;42141;53.240;6.580;2023-04-03T01:38:56;2.70;99.90
56234;DHT22;42141;53.240;6.580;2023-04-03T01:41:22;2.40;99.90
56234;DHT22;42141;53.240;6.580;2023-04-03T01:43:49;1.60;99.90
56234;DHT22;42141;53.240;6.580;2023-04-03T01:46:16;1.80;99.90
56234;DHT22;42141;53.240;6.580;2023-04-03T01:48:42;1.50;99.90
56234;DHT22;42141;53.240;6.580;2023-04-03T01:51:08;1.60;99.90
56234;DHT22;42141;53.240;6.580;2023-04-03T01:53:33;1.50;99.90
56234;DHT22;42141;53.240;6.580;2023-04-03T01:55:59;1.50;99.90
56234;DHT22;42141;53.240;6.580;2023-04-03T01:58:25;1.50;99.90
56234;DHT22;42141;53.240;6.580;2023-04-03T02:00:51;1.50;99.90
56234;DHT22;42141;53.240;6.580;2023-04-03T02:03:18;1.50;99.90
56234;DHT22;42141;53.240;6.580;2023-04-03T02:05:44;1.50;99.90
56234;DHT22;42141;53.240;6.580;2023-04-03T02:08:10;1.70;99.90
56234;DHT22;42141;53.240;6.580;2023-04-03T02:10:36;1.40;99.90
56234;DHT22;42141;53.240;6.580;2023-04-03T02:13:02;1.40;99.90
56234;DHT22;42141;53.240;6.580;2023-04-03T02:15:28;1.40;99.90
56234;DHT22;42141;53.240;6.580;2023-04-03T02:17:53;1.30;99.90
56234;DHT22;42141;53.240;6.580;2023-04-03T02:20:20;2.50;99.90
56234;DHT22;42141;53.240;6.580;2023-04-03T02:22:46;2.70;99.90
56234;DHT22;42141;53.240;6.580;2023-04-03T02:25:12;1.30;99.90
56234;DHT22;42141;53.240;6.580;2023-04-03T02:27:38;1.20;99.90
56234;DHT22;42141;53.240;6.580;2023-04-03T02:30:05;1.20;99.90
56234;DHT22;42141;53.240;6.580;2023-04-03T02:32:32;1.20;99.90
56234;DHT22;42141;53.240;6.580;2023-04-03T02:34:58;2.30;99.90
56234;DHT22;42141;53.240;6.580;2023-04-03T02:37:23;2.30;99.90
56234;DHT22;42141;53.240;6.580;2023-04-03T02:39:50;1.90;99.90
56234;DHT22;42141;53.240;6.580;2023-04-03T02:42:15;1.00;99.90
56234;DHT22;42141;53.240;6.580;2023-04-03T02:44:41;1.00;99.90
56234;DHT22;42141;53.240;6.580;2023-04-03T02:47:07;1.00;99.90
56234;DHT22;42141;53.240;6.580;2023-04-03T02:49:32;0.90;99.90
56234;DHT22;42141;53.240;6.580;2023-04-03T02:51:58;0.90;99.90
56234;DHT22;42141;53.240;6.580;2023-04-03T02:54:24;2.20;99.90
56234;DHT22;42141;53.240;6.580;2023-04-03T02:56:53;1.30;99.90
56234;DHT22;42141;53.240;6.580;2023-04-03T02:59:18;2.20;99.90
56234;DHT22;42141;53.240;6.580;2023-04-03T03:01:45;0.70;99.90
56234;DHT22;42141;53.240;6.580;2023-04-03T03:04:11;0.70;99.90
56234;DHT22;42141;53.240;6.580;2023-04-03T03:06:37;0.60;99.90
56234;DHT22;42141;53.240;6.580;2023-04-03T03:09:03;0.60;99.90
56234;DHT22;42141;53.240;6.580;2023-04-03T03:11:29;1.30;99.90
56234;DHT22;42141;53.240;6.580;2023-04-03T03:13:55;0.60;99.90
56234;DHT22;42141;53.240;6.580;2023-04-03T03:16:21;1.20;99.90
56234;DHT22;42141;53.240;6.580;2023-04-03T03:18:47;1.80;99.90
56234;DHT22;42141;53.240;6.580;2023-04-03T03:21:13;0.40;99.90
56234;DHT22;42141;53.240;6.580;2023-04-03T03:23:39;0.30;99.90
56234;DHT22;42141;53.240;6.580;2023-04-03T03:26:08;0.20;99.90
56234;DHT22;42141;53.240;6.580;2023-04-03T03:28:35;1.40;99.90
56234;DHT22;42141;53.240;6.580;2023-04-03T03:31:02;0.40;99.90
56234;DHT22;42141;53.240;6.580;2023-04-03T03:33:28;0.10;99.90
56234;DHT22;42141;53.240;6.580;2023-04-03T03:35:54;0.00;99.90
56234;DHT22;42141;53.240;6.580;2023-04-03T03:38:20;0.00;99.90
56234;DHT22;42141;53.240;6.580;2023-04-03T03:40:49;0.00;99.90
56234;DHT22;42141;53.240;6.580;2023-04-03T03:43:16;-0.10;99.90
56234;DHT22;42141;53.240;6.580;2023-04-03T03:45:42;-0.10;99.90
56234;DHT22;42141;53.240;6.580;2023-04-03T03:48:08;1.00;99.90
56234;DHT22;42141;53.240;6.580;2023-04-03T03:50:33;-0.10;99.90
56234;DHT22;42141;53.240;6.580;2023-04-03T03:52:59;-0.10;99.90
56234;DHT22;42141;53.240;6.580;2023-04-03T03:55:25;-0.10;99.90
56234;DHT22;42141;53.240;6.580;2023-04-03T03:57:51;0.00;99.90
56234;DHT22;42141;53.240;6.580;2023-04-03T04:00:17;-0.10;99.90
56234;DHT22;42141;53.240;6.580;2023-04-03T04:02:43;-0.10;99.90
56234;DHT22;42141;53.240;6.580;2023-04-03T04:05:09;-0.10;99.90
56234;DHT22;42141;53.240;6.580;2023-04-03T04:07:35;-0.10;99.90
56234;DHT22;42141;53.240;6.580;2023-04-03T04:10:01;-0.10;99.90
56234;DHT22;42141;53.240;6.580;2023-04-03T04:12:27;-0.10;99.90
56234;DHT22;42141;53.240;6.580;2023-04-03T04:14:52;-0.10;99.90
56234;DHT22;42141;53.240;6.580;2023-04-03T04:17:18;-0.10;99.90
56234;DHT22;42141;53.240;6.580;2023-04-03T04:19:44;-0.10;99.90
56234;DHT22;42141;53.240;6.580;2023-04-03T04:22:10;-0.10;99.90
56234;DHT22;42141;53.240;6.580;2023-04-03T04:24:35;0.10;99.90
56234;DHT22;42141;53.240;6.580;2023-04-03T04:27:01;-0.10;99.90
56234;DHT22;42141;53.240;6.580;2023-04-03T04:29:27;0.30;99.90
56234;DHT22;42141;53.240;6.580;2023-04-03T04:31:52;-0.20;99.90
56234;DHT22;42141;53.240;6.580;2023-04-03T04:34:18;0.90;99.90
56234;DHT22;42141;53.240;6.580;2023-04-03T04:36:44;-0.20;99.90
56234;DHT22;42141;53.240;6.580;2023-04-03T04:39:09;-0.20;99.90
56234;DHT22;42141;53.240;6.580;2023-04-03T04:41:35;-0.20;99.90
56234;DHT22;42141;53.240;6.580;2023-04-03T04:44:01;1.20;99.90
56234;DHT22;42141;53.240;6.580;2023-04-03T04:46:27;-0.20;99.90
56234;DHT22;42141;53.240;6.580;2023-04-03T04:48:52;1.00;99.90
56234;DHT22;42141;53.240;6.580;2023-04-03T04:51:18;-0.20;99.90
56234;DHT22;42141;53.240;6.580;2023-04-03T04:53:44;-0.20;99.90
56234;DHT22;42141;53.240;6.580;2023-04-03T04:56:10;0.50;99.90
56234;DHT22;42141;53.240;6.580;2023-04-03T04:58:36;-0.20;99.90
56234;DHT22;42141;53.240;6.580;2023-04-03T05:01:07;-0.20;99.90
56234;DHT22;42141;53.240;6.580;2023-04-03T05:03:33;0.90;99.90
56234;DHT22;42141;53.240;6.580;2023-04-03T05:05:59;-0.20;99.90
56234;DHT22;42141;53.240;6.580;2023-04-03T05:08:25;-0.20;99.90
56234;DHT22;42141;53.240;6.580;2023-04-03T05:10:51;-0.20;99.90
56234;DHT22;42141;53.240;6.580;2023-04-03T05:13:19;-0.20;99.90
56234;DHT22;42141;53.240;6.580;2023-04-03T05:15:45;-0.30;99.90
56234;DHT22;42141;53.240;6.580;2023-04-03T05:18:11;-0.30;99.90
56234;DHT22;42141;53.240;6.580;2023-04-03T05:20:36;-0.30;99.90
56234;DHT22;42141;53.240;6.580;2023-04-03T05:23:02;0.10;99.90
56234;DHT22;42141;53.240;6.580;2023-04-03T05:25:28;-0.30;99.90
56234;DHT22;42141;53.240;6.580;2023-04-03T05:27:54;-0.30;99.90
56234;DHT22;42141;53.240;6.580;2023-04-03T05:30:20;-0.30;99.90
56234;DHT22;42141;53.240;6.580;2023-04-03T05:32:46;-0.30;99.90
56234;DHT22;42141;53.240;6.580;2023-04-03T05:35:12;-0.30;99.90
56234;DHT22;42141;53.240;6.580;2023-04-03T05:37:38;-0.30;99.90
56234;DHT22;42141;53.240;6.580;2023-04-03T05:40:05;-0.30;99.90
56234;DHT22;42141;53.240;6.580;2023-04-03T05:42:31;-0.30;99.90
56234;DHT22;42141;53.240;6.580;2023-04-03T05:44:56;-0.10;99.90
56234;DHT22;42141;53.240;6.580;2023-04-03T05:47:23;-0.20;99.90
56234;DHT22;42141;53.240;6.580;2023-04-03T05:49:48;-0.20;99.90
56234;DHT22;42141;53.240;6.580;2023-04-03T05:52:25;-0.20;99.90
56234;DHT22;42141;53.240;6.580;2023-04-03T05:54:52;0.20;99.90
56234;DHT22;42141;53.240;6.580;2023-04-03T05:57:18;-0.10;99.90
56234;DHT22;42141;53.240;6.580;2023-04-03T05:59:44;-0.10;99.90
56234;DHT22;42141;53.240;6.580;2023-04-03T06:02:17;0.00;99.90
56234;DHT22;42141;53.240;6.580;2023-04-03T06:04:43;1.00;99.90
56234;DHT22;42141;53.240;6.580;2023-04-03T06:07:16;0.10;99.90
56234;DHT22;42141;53.240;6.580;2023-04-03T06:09:42;1.50;99.90
56234;DHT22;42141;53.240;6.580;2023-04-03T06:12:08;0.20;99.90
56234;DHT22;42141;53.240;6.580;2023-04-03T06:14:35;1.10;99.90
56234;DHT22;42141;53.240;6.580;2023-04-03T06:17:01;0.40;99.90
56234;DHT22;42141;53.240;6.580;2023-04-03T06:19:27;1.90;99.90
56234;DHT22;42141;53.240;6.580;2023-04-03T06:21:53;0.60;99.90
56234;DHT22;42141;53.240;6.580;2023-04-03T06:24:19;0.70;99.90
56234;DHT22;42141;53.240;6.580;2023-04-03T06:26:47;0.70;99.90
56234;DHT22;42141;53.240;6.580;2023-04-03T06:29:14;1.40;99.90
56234;DHT22;42141;53.240;6.580;2023-04-03T06:31:40;1.80;99.90
56234;DHT22;42141;53.240;6.580;2023-04-03T06:34:06;0.90;99.90
56234;DHT22;42141;53.240;6.580;2023-04-03T06:36:33;1.10;99.90
56234;DHT22;42141;53.240;6.580;2023-04-03T06:38:58;1.10;99.90
56234;DHT22;42141;53.240;6.580;2023-04-03T06:41:25;1.20;99.90
56234;DHT22;42141;53.240;6.580;2023-04-03T06:43:51;2.70;99.90
56234;DHT22;42141;53.240;6.580;2023-04-03T06:46:20;1.40;99.90
56234;DHT22;42141;53.240;6.580;2023-04-03T06:48:46;2.70;99.90
56234;DHT22;42141;53.240;6.580;2023-04-03T06:53:44;1.70;99.90
56234;DHT22;42141;53.240;6.580;2023-04-03T06:56:10;1.80;99.90
56234;DHT22;42141;53.240;6.580;2023-04-03T06:58:35;1.90;99.90
56234;DHT22;42141;53.240;6.580;2023-04-03T07:01:01;2.00;99.90
56234;DHT22;42141;53.240;6.580;2023-04-03T07:03:27;3.40;99.90
56234;DHT22;42141;53.240;6.580;2023-04-03T07:05:53;3.20;99.90
56234;DHT22;42141;53.240;6.580;2023-04-03T07:08:18;2.30;99.90
56234;DHT22;42141;53.240;6.580;2023-04-03T07:10:44;3.70;99.90
56234;DHT22;42141;53.240;6.580;2023-04-03T07:13:10;2.50;99.90
56234;DHT22;42141;53.240;6.580;2023-04-03T07:15:36;2.70;99.90
56234;DHT22;42141;53.240;6.580;2023-04-03T07:18:02;2.70;99.90
56234;DHT22;42141;53.240;6.580;2023-04-03T07:20:28;2.80;99.90
56234;DHT22;42141;53.240;6.580;2023-04-03T07:22:54;2.90;99.90
56234;DHT22;42141;53.240;6.580;2023-04-03T07:25:19;4.20;99.90
56234;DHT22;42141;53.240;6.580;2023-04-03T07:27:45;3.20;99.90
56234;DHT22;42141;53.240;6.580;2023-04-03T07:30:11;3.30;99.90
56234;DHT22;42141;53.240;6.580;2023-04-03T07:32:39;3.40;99.90
56234;DHT22;42141;53.240;6.580;2023-04-03T07:35:05;3.50;99.90
56234;DHT22;42141;53.240;6.580;2023-04-03T07:37:31;3.60;99.90
56234;DHT22;42141;53.240;6.580;2023-04-03T07:39:58;3.70;99.90
56234;DHT22;42141;53.240;6.580;2023-04-03T07:42:25;4.40;99.90
56234;DHT22;42141;53.240;6.580;2023-04-03T07:44:53;3.90;99.90
56234;DHT22;42141;53.240;6.580;2023-04-03T07:47:19;4.00;99.90
56234;DHT22;42141;53.240;6.580;2023-04-03T07:49:46;4.00;99.90
56234;DHT22;42141;53.240;6.580;2023-04-03T07:52:12;5.30;99.90
56234;DHT22;42141;53.240;6.580;2023-04-03T07:54:40;4.20;99.90
56234;DHT22;42141;53.240;6.580;2023-04-03T07:57:05;4.30;99.90
56234;DHT22;42141;53.240;6.580;2023-04-03T07:59:31;4.40;99.90
56234;DHT22;42141;53.240;6.580;2023-04-03T08:01:57;4.50;99.90
56234;DHT22;42141;53.240;6.580;2023-04-03T08:04:23;4.50;99.90
56234;DHT22;42141;53.240;6.580;2023-04-03T08:06:49;4.60;99.90
56234;DHT22;42141;53.240;6.580;2023-04-03T08:09:15;4.70;99.90
56234;DHT22;42141;53.240;6.580;2023-04-03T08:11:41;4.70;99.90
56234;DHT22;42141;53.240;6.580;2023-04-03T08:14:07;4.80;99.90
56234;DHT22;42141;53.240;6.580;2023-04-03T08:16:33;5.30;99.90
56234;DHT22;42141;53.240;6.580;2023-04-03T08:18:59;4.90;99.90
56234;DHT22;42141;53.240;6.580;2023-04-03T08:21:25;5.90;99.90
56234;DHT22;42141;53.240;6.580;2023-04-03T08:23:51;5.20;99.90
56234;DHT22;42141;53.240;6.580;2023-04-03T08:26:19;5.30;99.90
56234;DHT22;42141;53.240;6.580;2023-04-03T08:28:46;5.40;99.90
56234;DHT22;42141;53.240;6.580;2023-04-03T08:31:15;5.50;99.90
56234;DHT22;42141;53.240;6.580;2023-04-03T08:33:42;6.20;99.90
56234;DHT22;42141;53.240;6.580;2023-04-03T08:36:22;6.60;99.90
56234;DHT22;42141;53.240;6.580;2023-04-03T08:38:49;5.80;99.90
56234;DHT22;42141;53.240;6.580;2023-04-03T08:41:20;5.90;99.90
56234;DHT22;42141;53.240;6.580;2023-04-03T08:52:19;6.30;99.90
56234;DHT22;42141;53.240;6.580;2023-04-03T08:54:55;6.50;99.90
56234;DHT22;42141;53.240;6.580;2023-04-03T08:57:35;6.60;99.90
56234;DHT22;42141;53.240;6.580;2023-04-03T09:00:16;6.70;99.90
56234;DHT22;42141;53.240;6.580;2023-04-03T09:02:53;6.80;99.90
56234;DHT22;42141;53.240;6.580;2023-04-03T09:05:51;6.90;99.90
56234;DHT22;42141;53.240;6.580;2023-04-03T09:08:27;7.00;99.90
56234;DHT22;42141;53.240;6.580;2023-04-03T09:11:17;7.10;99.90
56234;DHT22;42141;53.240;6.580;2023-04-03T09:22:17;7.70;99.90
56234;DHT22;42141;53.240;6.580;2023-04-03T09:24:57;8.20;99.90
56234;DHT22;42141;53.240;6.580;2023-04-03T09:27:24;8.10;99.90
56234;DHT22;42141;53.240;6.580;2023-04-03T09:29:56;8.20;99.90
56234;DHT22;42141;53.240;6.580;2023-04-03T09:32:28;8.40;99.90
56234;DHT22;42141;53.240;6.580;2023-04-03T09:34:57;8.60;99.90
56234;DHT22;42141;53.240;6.580;2023-04-03T09:37:44;8.60;99.90
56234;DHT22;42141;53.240;6.580;2023-04-03T09:43:00;8.70;99.30
56234;DHT22;42141;53.240;6.580;2023-04-03T09:45:34;8.80;98.90
56234;DHT22;42141;53.240;6.580;2023-04-03T09:53:37;9.50;98.00
56234;DHT22;42141;53.240;6.580;2023-04-03T09:56:18;9.20;96.50
56234;DHT22;42141;53.240;6.580;2023-04-03T10:01:32;9.50;94.20
56234;DHT22;42141;53.240;6.580;2023-04-03T10:06:36;9.60;93.40
56234;DHT22;42141;53.240;6.580;2023-04-03T10:09:06;9.80;93.90
56234;DHT22;42141;53.240;6.580;2023-04-03T10:14:22;10.00;92.70
56234;DHT22;42141;53.240;6.580;2023-04-03T10:20:26;10.20;90.10
56234;DHT22;42141;53.240;6.580;2023-04-03T10:25:38;10.20;91.10
56234;DHT22;42141;53.240;6.580;2023-04-03T10:28:29;10.30;90.90
56234;DHT22;42141;53.240;6.580;2023-04-03T10:31:18;10.50;90.70
56234;DHT22;42141;53.240;6.580;2023-04-03T10:34:00;10.60;84.10
56234;DHT22;42141;53.240;6.580;2023-04-03T10:39:04;10.70;85.60
56234;DHT22;42141;53.240;6.580;2023-04-03T10:41:39;10.60;82.40
56234;DHT22;42141;53.240;6.580;2023-04-03T10:50:23;10.60;79.20
56234;DHT22;42141;53.240;6.580;2023-04-03T10:57:54;10.70;77.30
56234;DHT22;42141;53.240;6.580;2023-04-03T11:00:39;10.70;76.50
56234;DHT22;42141;53.240;6.580;2023-04-03T11:05:55;10.80;74.10
56234;DHT22;42141;53.240;6.580;2023-04-03T11:11:08;11.00;72.70
56234;DHT22;42141;53.240;6.580;2023-04-03T11:13:52;11.00;69.10
56234;DHT22;42141;53.240;6.580;2023-04-03T11:16:27;11.00;67.90
56234;DHT22;42141;53.240;6.580;2023-04-03T11:19:21;10.90;69.80
56234;DHT22;42141;53.240;6.580;2023-04-03T11:24:33;11.10;68.30
56234;DHT22;42141;53.240;6.580;2023-04-03T11:27:03;11.10;68.60
56234;DHT22;42141;53.240;6.580;2023-04-03T11:29:38;11.10;68.30
56234;DHT22;42141;53.240;6.580;2023-04-03T11:37:35;11.20;66.80
56234;DHT22;42141;53.240;6.580;2023-04-03T11:42:43;11.30;67.50
56234;DHT22;42141;53.240;6.580;2023-04-03T11:47:56;11.40;65.10
56234;DHT22;42141;53.240;6.580;2023-04-03T12:13:40;12.00;66.00
56234;DHT22;42141;53.240;6.580;2023-04-03T12:16:19;12.30;64.90
56234;DHT22;42141;53.240;6.580;2023-04-03T12:19:47;12.00;64.20
56234;DHT22;42141;53.240;6.580;2023-04-03T12:24:29;12.10;64.20
56234;DHT22;42141;53.240;6.580;2023-04-03T12:27:28;12.10;63.60
56234;DHT22;42141;53.240;6.580;2023-04-03T12:33:32;12.00;62.10
56234;DHT22;42141;53.240;6.580;2023-04-03T12:35:36;12.10;61.80
56234;DHT22;42141;53.240;6.580;2023-04-03T12:46:24;12.40;60.90
56234;DHT22;42141;53.240;6.580;2023-04-03T12:48:58;12.50;60.40
56234;DHT22;42141;53.240;6.580;2023-04-03T12:51:41;12.50;60.30
56234;DHT22;42141;53.240;6.580;2023-04-03T12:54:34;12.60;58.30
56234;DHT22;42141;53.240;6.580;2023-04-03T12:57:21;12.60;58.50
56234;DHT22;42141;53.240;6.580;2023-04-03T12:59:47;12.50;58.60
56234;DHT22;42141;53.240;6.580;2023-04-03T13:04:45;12.40;58.40
56234;DHT22;42141;53.240;6.580;2023-04-03T13:07:41;12.40;59.60
56234;DHT22;42141;53.240;6.580;2023-04-03T13:12:44;12.50;59.80
56234;DHT22;42141;53.240;6.580;2023-04-03T13:15:25;12.60;59.00
56234;DHT22;42141;53.240;6.580;2023-04-03T13:17:52;12.70;58.00
56234;DHT22;42141;53.240;6.580;2023-04-03T13:20:27;12.60;58.10
56234;DHT22;42141;53.240;6.580;2023-04-03T13:22:59;12.70;57.60
56234;DHT22;42141;53.240;6.580;2023-04-03T13:25:30;12.70;58.60
56234;DHT22;42141;53.240;6.580;2023-04-03T13:27:58;12.80;58.10
56234;DHT22;42141;53.240;6.580;2023-04-03T13:30:31;12.80;57.80
56234;DHT22;42141;53.240;6.580;2023-04-03T13:33:00;12.80;57.30
56234;DHT22;42141;53.240;6.580;2023-04-03T13:37:57;12.80;57.10
56234;DHT22;42141;53.240;6.580;2023-04-03T13:40:23;12.90;57.60
56234;DHT22;42141;53.240;6.580;2023-04-03T13:43:00;13.10;57.60
56234;DHT22;42141;53.240;6.580;2023-04-03T13:45:28;13.20;56.90
56234;DHT22;42141;53.240;6.580;2023-04-03T13:48:16;13.20;57.40
56234;DHT22;42141;53.240;6.580;2023-04-03T13:53:17;13.30;57.40
56234;DHT22;42141;53.240;6.580;2023-04-03T13:56:08;13.30;58.20
56234;DHT22;42141;53.240;6.580;2023-04-03T13:58:36;13.40;57.60
56234;DHT22;42141;53.240;6.580;2023-04-03T14:01:10;13.40;59.00
56234;DHT22;42141;53.240;6.580;2023-04-03T14:03:50;13.20;57.90
56234;DHT22;42141;53.240;6.580;2023-04-03T14:06:16;13.00;57.90
56234;DHT22;42141;53.240;6.580;2023-04-03T14:08:43;13.00;59.00
56234;DHT22;42141;53.240;6.580;2023-04-03T14:11:15;13.00;59.50
56234;DHT22;42141;53.240;6.580;2023-04-03T14:13:42;13.00;58.70
56234;DHT22;42141;53.240;6.580;2023-04-03T14:16:12;12.80;58.30
56234;DHT22;42141;53.240;6.580;2023-04-03T14:18:38;12.80;59.00
56234;DHT22;42141;53.240;6.580;2023-04-03T14:21:04;12.90;59.70
56234;DHT22;42141;53.240;6.580;2023-04-03T14:23:30;13.00;59.80
56234;DHT22;42141;53.240;6.580;2023-04-03T14:25:56;13.10;60.90
56234;DHT22;42141;53.240;6.580;2023-04-03T14:28:22;13.20;60.40
56234;DHT22;42141;53.240;6.580;2023-04-03T14:30:51;13.00;58.70
56234;DHT22;42141;53.240;6.580;2023-04-03T14:33:20;13.00;59.20
56234;DHT22;42141;53.240;6.580;2023-04-03T14:35:47;13.00;59.40
56234;DHT22;42141;53.240;6.580;2023-04-03T14:38:29;13.10;59.40
56234;DHT22;42141;53.240;6.580;2023-04-03T14:40:56;13.30;59.50
56234;DHT22;42141;53.240;6.580;2023-04-03T14:43:22;13.40;60.50
56234;DHT22;42141;53.240;6.580;2023-04-03T14:45:48;13.30;60.70
56234;DHT22;42141;53.240;6.580;2023-04-03T14:48:26;13.10;60.60
56234;DHT22;42141;53.240;6.580;2023-04-03T14:50:53;13.00;61.10
56234;DHT22;42141;53.240;6.580;2023-04-03T14:53:19;12.90;61.90
56234;DHT22;42141;53.240;6.580;2023-04-03T14:55:48;12.80;62.00
56234;DHT22;42141;53.240;6.580;2023-04-03T14:58:16;12.90;62.60
56234;DHT22;42141;53.240;6.580;2023-04-03T15:00:43;13.00;61.70
56234;DHT22;42141;53.240;6.580;2023-04-03T15:03:15;13.10;61.40
56234;DHT22;42141;53.240;6.580;2023-04-03T15:05:43;13.10;60.20
56234;DHT22;42141;53.240;6.580;2023-04-03T15:08:20;12.90;60.50
56234;DHT22;42141;53.240;6.580;2023-04-03T15:10:47;12.80;60.40
56234;DHT22;42141;53.240;6.580;2023-04-03T15:13:13;12.70;60.10
56234;DHT22;42141;53.240;6.580;2023-04-03T15:15:39;12.80;60.00
56234;DHT22;42141;53.240;6.580;2023-04-03T15:18:05;12.60;59.60
56234;DHT22;42141;53.240;6.580;2023-04-03T15:20:31;12.50;59.60
56234;DHT22;42141;53.240;6.580;2023-04-03T15:22:59;12.40;59.20
56234;DHT22;42141;53.240;6.580;2023-04-03T15:25:28;12.40;59.60
56234;DHT22;42141;53.240;6.580;2023-04-03T15:27:55;12.30;59.90
56234;DHT22;42141;53.240;6.580;2023-04-03T15:30:21;12.30;60.00
56234;DHT22;42141;53.240;6.580;2023-04-03T15:32:47;12.20;60.20
56234;DHT22;42141;53.240;6.580;2023-04-03T15:35:14;11.90;60.50
56234;DHT22;42141;53.240;6.580;2023-04-03T15:37:40;11.70;60.20
56234;DHT22;42141;53.240;6.580;2023-04-03T15:40:07;11.50;60.80
56234;DHT22;42141;53.240;6.580;2023-04-03T15:42:33;11.20;61.40
56234;DHT22;42141;53.240;6.580;2023-04-03T15:44:58;11.20;62.00
56234;DHT22;42141;53.240;6.580;2023-04-03T15:47:25;10.90;62.30
56234;DHT22;42141;53.240;6.580;2023-04-03T15:49:52;10.60;62.30
56234;DHT22;42141;53.240;6.580;2023-04-03T15:52:21;11.30;63.60
56234;DHT22;42141;53.240;6.580;2023-04-03T15:54:47;10.20;63.50
56234;DHT22;42141;53.240;6.580;2023-04-03T15:57:13;10.00;64.10
56234;DHT22;42141;53.240;6.580;2023-04-03T15:59:38;9.80;64.80
56234;DHT22;42141;53.240;6.580;2023-04-03T16:02:06;9.60;65.30
56234;DHT22;42141;53.240;6.580;2023-04-03T16:04:33;9.50;66.00
56234;DHT22;42141;53.240;6.580;2023-04-03T16:07:03;9.30;66.10
56234;DHT22;42141;53.240;6.580;2023-04-03T16:09:30;9.30;67.00
56234;DHT22;42141;53.240;6.580;2023-04-03T16:11:56;9.10;67.60
56234;DHT22;42141;53.240;6.580;2023-04-03T16:14:22;9.00;68.10
56234;DHT22;42141;53.240;6.580;2023-04-03T16:16:48;8.90;69.00
56234;DHT22;42141;53.240;6.580;2023-04-03T16:19:14;8.80;69.60
56234;DHT22;42141;53.240;6.580;2023-04-03T16:21:40;8.80;70.50
56234;DHT22;42141;53.240;6.580;2023-04-03T16:24:06;8.70;70.90
56234;DHT22;42141;53.240;6.580;2023-04-03T16:26:32;7.70;70.40
56234;DHT22;42141;53.240;6.580;2023-04-03T16:28:58;8.60;71.50
56234;DHT22;42141;53.240;6.580;2023-04-03T16:31:25;8.80;72.10
56234;DHT22;42141;53.240;6.580;2023-04-03T16:33:51;8.30;72.30
56234;DHT22;42141;53.240;6.580;2023-04-03T16:36:17;8.20;73.00
56234;DHT22;42141;53.240;6.580;2023-04-03T16:38:43;8.20;73.90
56234;DHT22;42141;53.240;6.580;2023-04-03T16:41:08;8.10;74.60
56234;DHT22;42141;53.240;6.580;2023-04-03T16:43:34;8.10;75.50
56234;DHT22;42141;53.240;6.580;2023-04-03T16:46:01;8.00;76.30
56234;DHT22;42141;53.240;6.580;2023-04-03T16:48:28;8.30;77.00
56234;DHT22;42141;53.240;6.580;2023-04-03T16:50:54;7.90;77.30
56234;DHT22;42141;53.240;6.580;2023-04-03T16:53:21;7.80;78.10
56234;DHT22;42141;53.240;6.580;2023-04-03T16:55:47;7.70;79.10
56234;DHT22;42141;53.240;6.580;2023-04-03T16:58:12;7.70;80.00
56234;DHT22;42141;53.240;6.580;2023-04-03T17:00:40;7.60;81.00
56234;DHT22;42141;53.240;6.580;2023-04-03T17:03:06;7.60;81.90
56234;DHT22;42141;53.240;6.580;2023-04-03T17:05:31;7.50;83.20
56234;DHT22;42141;53.240;6.580;2023-04-03T17:07:57;7.40;84.20
56234;DHT22;42141;53.240;6.580;2023-04-03T17:10:23;7.40;85.70
56234;DHT22;42141;53.240;6.580;2023-04-03T17:12:49;7.40;87.00
56234;DHT22;42141;53.240;6.580;2023-04-03T17:15:15;8.00;88.70
56234;DHT22;42141;53.240;6.580;2023-04-03T17:17:41;7.20;89.40
56234;DHT22;42141;53.240;6.580;2023-04-03T17:20:07;7.80;90.50
56234;DHT22;42141;53.240;6.580;2023-04-03T17:22:33;7.10;90.90
56234;DHT22;42141;53.240;6.580;2023-04-03T17:24:58;7.10;91.50
56234;DHT22;42141;53.240;6.580;2023-04-03T17:27:24;8.00;92.10
56234;DHT22;42141;53.240;6.580;2023-04-03T17:29:50;7.00;92.60
56234;DHT22;42141;53.240;6.580;2023-04-03T17:32:16;6.90;93.00
56234;DHT22;42141;53.240;6.580;2023-04-03T17:34:42;6.90;93.50
56234;DHT22;42141;53.240;6.580;2023-04-03T17:37:08;6.80;94.10
56234;DHT22;42141;53.240;6.580;2023-04-03T17:39:33;6.70;94.40
56234;DHT22;42141;53.240;6.580;2023-04-03T17:41:59;7.80;95.30
56234;DHT22;42141;53.240;6.580;2023-04-03T17:44:28;6.60;95.70
56234;DHT22;42141;53.240;6.580;2023-04-03T17:46:54;6.50;96.20
56234;DHT22;42141;53.240;6.580;2023-04-03T17:49:19;6.40;96.70
56234;DHT22;42141;53.240;6.580;2023-04-03T17:51:47;6.60;97.40
56234;DHT22;42141;53.240;6.580;2023-04-03T17:54:13;6.30;97.60
56234;DHT22;42141;53.240;6.580;2023-04-03T17:56:39;6.20;98.20